^^
Grace C. Lehan Memorial Weather Station Historical Data
Daily Summary for November 21, 2021 Units:  Metric    English   Both
Daily Weekly Monthly Yearly
  High: Low: Average:
Temperature: 13.6 °C 2.8 °C 8.1 °C
Dew Point: 9.9 °C -0.4 °C 3.8 °C
Humidity: 95% 42% 76%
Wind Speed: 6.3km/h 0km/h 0.5km/h
Wind Gust: 17.7km/h - -
Wind- - SSW
Pressure: 1028.7 hPa 1012.8 hPa -
Precipitation: 1.27 mm    
 
 
Tabular Data for November 21, 2021
Time Temperature Dew Point Pressure Wind Wind Speed Wind Gust Humidity Rainfall Rate (Hourly) solar
00:04 2.8 °C -0.4 °C 1028.7 hPa Calm     79% 0 mm 0 W/m2
00:09 2.8 °C -0.3 °C 1028.7 hPa Calm     79.8% 0 mm 0 W/m2
00:14 2.9 °C -0.2 °C 1028.3 hPa Calm     80% 0 mm 0 W/m2
00:19 2.9 °C -0.2 °C 1028.3 hPa Calm     80% 0 mm 0 W/m2
00:24 3 °C -0.1 °C 1028.3 hPa Calm     80% 0 mm 0 W/m2
00:29 3.1 °C -0.1 °C 1028.3 hPa Calm     80% 0 mm 0 W/m2
00:34 3.1 °C 0.1 °C 1028 hPa Calm     80.6% 0 mm 0 W/m2
00:39 3.2 °C 0.2 °C 1028.3 hPa Calm     81% 0 mm 0 W/m2
00:44 3.2 °C 0.2 °C 1028.3 hPa Calm     81% 0 mm 0 W/m2
00:49 3.2 °C 0.3 °C 1028 hPa Calm     81% 0 mm 0 W/m2
00:54 3.3 °C 0.3 °C 1028 hPa Calm     81% 0 mm 0 W/m2
00:59 3.4 °C 0.4 °C 1027.7 hPa Calm     81.3% 0 mm 0 W/m2
01:04 3.4 °C 0.7 °C 1027.7 hPa Calm     82% 0 mm 0 W/m2
01:09 3.5 °C 0.7 °C 1027.7 hPa Calm     82% 0 mm 0 W/m2
01:14 3.6 °C 0.7 °C 1027.7 hPa Calm     81.7% 0 mm 0 W/m2
01:19 3.5 °C 0.6 °C 1027.3 hPa Calm     81% 0 mm 0 W/m2
01:24 3.4 °C 0.5 °C 1027.7 hPa Calm     81% 0 mm 0 W/m2
01:29 3.4 °C 0.5 °C 1027.7 hPa Calm     81.3% 0 mm 0 W/m2
01:34 3.3 °C 0.6 °C 1027.7 hPa Calm     81.8% 0 mm 0 W/m2
01:39 3.3 °C 0.6 °C 1027.7 hPa Calm     82% 0 mm 0 W/m2
01:44 3.3 °C 0.5 °C 1027.7 hPa Calm     82% 0 mm 0 W/m2
01:49 3.3 °C 0.6 °C 1027.7 hPa Calm     82.7% 0 mm 0 W/m2
01:54 3.3 °C 0.7 °C 1027.7 hPa Calm     83% 0 mm 0 W/m2
01:59 3.4 °C 0.8 °C 1027.7 hPa Calm     83.5% 0 mm 0 W/m2
02:04 3.4 °C 1 °C 1027.7 hPa Calm     84% 0 mm 0 W/m2
02:09 3.5 °C 1.1 °C 1027.7 hPa Calm     84% 0 mm 0 W/m2
02:14 3.6 °C 1.1 °C 1027.7 hPa Calm     84% 0 mm 0 W/m2
02:19 3.6 °C 1.2 °C 1028 hPa Calm     84% 0 mm 0 W/m2
02:24 3.6 °C 1.2 °C 1028 hPa Calm     84% 0 mm 0 W/m2
02:29 3.6 °C 1.2 °C 1027.7 hPa Calm     84% 0 mm 0 W/m2
02:34 3.5 °C 1 °C 1027.7 hPa Calm     83.6% 0 mm 0 W/m2
02:39 3.4 °C 0.8 °C 1027.7 hPa Calm     83% 0 mm 0 W/m2
02:44 3.4 °C 0.8 °C 1027.7 hPa Calm     83% 0 mm 0 W/m2
02:49 3.3 °C 0.8 °C 1027.7 hPa Calm     83.8% 0 mm 0 W/m2
02:54 3.3 °C 0.8 °C 1027.7 hPa Calm     84% 0 mm 0 W/m2
02:59 3.2 °C 0.8 °C 1027.3 hPa Calm     84% 0 mm 0 W/m2
03:04 3.2 °C 0.9 °C 1027.3 hPa Calm     84.7% 0 mm 0 W/m2
03:09 3.2 °C 0.9 °C 1027.3 hPa Calm     85% 0 mm 0 W/m2
03:14 3.2 °C 0.9 °C 1027.3 hPa Calm     85% 0 mm 0 W/m2
03:19 3.2 °C 0.9 °C 1027.3 hPa Calm     85% 0 mm 0 W/m2
03:24 3.2 °C 0.9 °C 1027 hPa Calm     85% 0 mm 0 W/m2
03:29 3.2 °C 0.9 °C 1027 hPa Calm     85% 0 mm 0 W/m2
03:34 3.2 °C 0.9 °C 1027 hPa Calm     85% 0 mm 0 W/m2
03:39 3.2 °C 0.9 °C 1027 hPa Calm     85.2% 0 mm 0 W/m2
03:44 3.2 °C 1.1 °C 1027 hPa Calm     86% 0 mm 0 W/m2
03:49 3.2 °C 1.1 °C 1027 hPa Calm     86% 0 mm 0 W/m2
03:54 3.1 °C 0.8 °C 1027 hPa Calm     85% 0 mm 0 W/m2
03:59 3.1 °C 0.9 °C 1027 hPa Calm     85.6% 0 mm 0 W/m2
04:09 3 °C 0.9 °C 1027 hPa Calm     86% 0 mm 0 W/m2
04:14 3 °C 0.9 °C 1027 hPa Calm     86% 0 mm 0 W/m2
04:19 2.9 °C 0.8 °C 1027 hPa Calm     86% 0 mm 0 W/m2
04:24 2.9 °C 0.8 °C 1026.6 hPa Calm     86% 0 mm 0 W/m2
04:29 2.9 °C 0.9 °C 1026.6 hPa Calm     86.5% 0 mm 0 W/m2
04:34 2.9 °C 1 °C 1026.6 hPa Calm     87% 0 mm 0 W/m2
04:39 2.9 °C 1 °C 1026.6 hPa Calm     87% 0 mm 0 W/m2
04:44 3 °C 1.1 °C 1026.6 hPa Calm     87% 0 mm 0 W/m2
04:49 3 °C 1.1 °C 1026.6 hPa Calm     87% 0 mm 0 W/m2
04:54 3.1 °C 1.1 °C 1026.6 hPa Calm     87% 0 mm 0 W/m2
04:59 3.1 °C 1.2 °C 1026.6 hPa Calm     87.3% 0 mm 0 W/m2
05:04 3.1 °C 1.2 °C 1026.6 hPa Calm     87.3% 0 mm 0 W/m2
05:09 3.1 °C 1.3 °C 1026.6 hPa Calm     88% 0 mm 0 W/m2
05:14 3.1 °C 1.3 °C 1026.6 hPa Calm     88% 0 mm 0 W/m2
05:19 3.1 °C 1.3 °C 1026.6 hPa Calm     88% 0 mm 0 W/m2
05:24 3.2 °C 1.3 °C 1026.6 hPa Calm     88% 0 mm 0 W/m2
05:29 3.2 °C 1.4 °C 1026.6 hPa Calm     88% 0 mm 0 W/m2
05:34 3.2 °C 1.4 °C 1026.6 hPa Calm     88% 0 mm 0 W/m2
05:39 3.2 °C 1.4 °C 1026.6 hPa Calm     88% 0 mm 0 W/m2
05:44 3.2 °C 1.4 °C 1026.6 hPa Calm     88% 0 mm 0 W/m2
05:49 3.2 °C 1.4 °C 1026.3 hPa Calm     88% 0 mm 0 W/m2
05:54 3.3 °C 1.5 °C 1026.6 hPa Calm     88.2% 0 mm 0 W/m2
05:59 3.3 °C 1.6 °C 1026.6 hPa Calm     88.9% 0 mm 0 W/m2
06:04 3.3 °C 1.7 °C 1026.6 hPa Calm     89% 0 mm 0 W/m2
06:09 3.3 °C 1.7 °C 1026.6 hPa Calm     89% 0 mm 0 W/m2
06:14 3.3 °C 1.7 °C 1026.6 hPa Calm     89% 0 mm 0 W/m2
06:19 3.3 °C 1.7 °C 1026.3 hPa Calm     89% 0 mm 0 W/m2
06:24 3.3 °C 1.7 °C 1026.3 hPa Calm     89% 0 mm 0 W/m2
06:29 3.4 °C 1.7 °C 1026.3 hPa Calm     89% 0 mm 0 W/m2
06:34 3.4 °C 1.8 °C 1026.3 hPa Calm     89% 0 mm 0 W/m2
06:39 3.5 °C 1.8 °C 1026.3 hPa Calm     89% 0 mm 0 W/m2
06:44 3.5 °C 1.8 °C 1026.3 hPa Calm     89% 0 mm 0 W/m2
06:49 3.5 °C 1.8 °C 1026.3 hPa Calm     88.7% 0 mm 0 W/m2
06:54 3.5 °C 1.8 °C 1026.3 hPa Calm     88.6% 0 mm 0 W/m2
06:59 3.4 °C 1.8 °C 1026.3 hPa Calm     89% 0 mm 5 W/m2
07:04 3.4 °C 1.7 °C 1026.3 hPa Calm     88.4% 0 mm 7 W/m2
07:09 3.4 °C 1.7 °C 1026.3 hPa Calm     88% 0 mm 11 W/m2
07:14 3.4 °C 1.8 °C 1026.3 hPa Calm     88.8% 0 mm 12 W/m2
07:19 3.4 °C 1.8 °C 1026.3 hPa Calm     89% 0 mm 14 W/m2
07:24 3.4 °C 1.8 °C 1026.3 hPa Calm     89% 0 mm 18 W/m2
07:29 3.5 °C 1.8 °C 1026.3 hPa Calm     89% 0 mm 21 W/m2
07:34 3.5 °C 1.8 °C 1026.3 hPa Calm     89% 0 mm 25 W/m2
07:39 3.5 °C 1.9 °C 1026.3 hPa Calm     89% 0 mm 30 W/m2
07:44 3.6 °C 1.9 °C 1026.3 hPa Calm     89% 0 mm 42 W/m2
07:49 3.6 °C 1.9 °C 1026.3 hPa Calm     89% 0 mm 46 W/m2
07:54 3.6 °C 1.9 °C 1026.3 hPa Calm     89% 0 mm 42 W/m2
07:59 3.6 °C 1.9 °C 1026.3 hPa Calm     89% 0 mm 47 W/m2
08:09 3.6 °C 1.9 °C 1026.3 hPa Calm   1.6 km/h 89% 0 mm 70 W/m2
08:14 3.7 °C 2.1 °C 1026.3 hPa Calm   1.6 km/h 89% 0 mm 123 W/m2
08:19 3.9 °C 2.4 °C 1026.3 hPa Calm   1.6 km/h 90% 0 mm 86 W/m2
08:24 4.1 °C 2.4 °C 1026.3 hPa Calm   1.6 km/h 89% 0 mm 65 W/m2
08:29 4.2 °C 2.6 °C 1026 hPa Calm   1.6 km/h 89% 0 mm 72 W/m2
08:34 4.4 °C 2.7 °C 1026 hPa Calm   1.6 km/h 88.6% 0 mm 118 W/m2
08:39 4.5 °C 2.7 °C 1026 hPa Calm     88% 0 mm 260 W/m2
08:44 4.8 °C 3 °C 1026 hPa Calm     88% 0 mm 279 W/m2
08:49 5.3 °C 3.4 °C 1026 hPa Calm     87.3% 0 mm 278 W/m2
08:54 5.9 °C 3.7 °C 1026 hPa Calm     85.5% 0 mm 283 W/m2
08:59 6.3 °C 3.6 °C 1026 hPa South 0.2 km/h 4.8 km/h 82.7% 0 mm 116 W/m2
09:04 6.6 °C 3.4 °C 1026 hPa South 0.3 km/h 4.8 km/h 80.4% 0 mm 77 W/m2
09:09 6.7 °C 3.4 °C 1026 hPa Calm   3.2 km/h 79.4% 0 mm 109 W/m2
09:14 6.8 °C 3.4 °C 1026 hPa Calm   3.2 km/h 79% 0 mm 148 W/m2
09:19 7.1 °C 3.8 °C 1026 hPa Calm   3.2 km/h 79.7% 0 mm 158 W/m2
09:24 7.3 °C 3.8 °C 1026 hPa South 0.2 km/h 3.2 km/h 78.5% 0 mm 214 W/m2
09:29 7.6 °C 3.8 °C 1025.6 hPa South 0.2 km/h 3.2 km/h 76.9% 0 mm 169 W/m2
09:34 7.8 °C 3.7 °C 1025.6 hPa Calm   3.2 km/h 75.1% 0 mm 100 W/m2
09:39 7.9 °C 3.6 °C 1025.6 hPa South 0.3 km/h 4.8 km/h 74.4% 0 mm 107 W/m2
09:44 7.9 °C 3.6 °C 1025.6 hPa Calm   4.8 km/h 74% 0 mm 160 W/m2
09:49 8 °C 3.7 °C 1025.6 hPa Calm   4.8 km/h 74% 0 mm 190 W/m2
09:54 8.1 °C 3.7 °C 1025.6 hPa Calm   4.8 km/h 73.7% 0 mm 190 W/m2
09:59 8.3 °C 3.6 °C 1025.6 hPa Calm   4.8 km/h 72.3% 0 mm 190 W/m2
10:04 8.4 °C 3.7 °C 1025.6 hPa Calm   4.8 km/h 71.9% 0 mm 381 W/m2
10:09 8.7 °C 3.9 °C 1025.6 hPa South 0.2 km/h 4.8 km/h 72% 0 mm 262 W/m2
10:14 9 °C 3.9 °C 1025.3 hPa South 0.3 km/h 4.8 km/h 70.2% 0 mm 336 W/m2
10:19 9.2 °C 3.7 °C 1025.6 hPa South 0.3 km/h 4.8 km/h 68.6% 0 mm 336 W/m2
10:24 9.3 °C 3.6 °C 1025.3 hPa South 0.5 km/h 4.8 km/h 67.4% 0 mm 461 W/m2
10:29 9.6 °C 3.7 °C 1025.3 hPa Calm   4.8 km/h 67% 0 mm 468 W/m2
10:34 9.8 °C 3.8 °C 1025.3 hPa Calm   4.8 km/h 66.5% 0 mm 418 W/m2
10:39 10 °C 3.8 °C 1024.9 hPa South 0.5 km/h 4.8 km/h 65.2% 0 mm 480 W/m2
10:44 10.2 °C 3.6 °C 1024.9 hPa Calm   4.8 km/h 63.5% 0 mm 267 W/m2
10:49 10.5 °C 3.7 °C 1024.6 hPa South 1 km/h 8 km/h 62.7% 0 mm 230 W/m2
10:54 10.7 °C 3.8 °C 1024.6 hPa South 0.3 km/h 8 km/h 62.4% 0 mm 432 W/m2
10:59 10.8 °C 3.4 °C 1024.6 hPa SSW 0.8 km/h 8 km/h 60.3% 0 mm 385 W/m2
11:04 10.8 °C 3.5 °C 1024.3 hPa SSW 1.4 km/h 8 km/h 60.4% 0 mm 250 W/m2
11:09 10.9 °C 3.4 °C 1024.3 hPa SSW 2.3 km/h 6.4 km/h 60.2% 0 mm 374 W/m2
11:14 10.9 °C 3.6 °C 1024.3 hPa Calm   6.4 km/h 60.3% 0 mm 374 W/m2
11:19 11.1 °C 3.8 °C 1023.9 hPa SSW 0.5 km/h 6.4 km/h 60.7% 0 mm 318 W/m2
11:24 11.3 °C 3.6 °C 1023.9 hPa Calm   6.4 km/h 59% 0 mm 269 W/m2
11:29 11.5 °C 3.9 °C 1023.9 hPa SSW 0.5 km/h 8 km/h 59.5% 0 mm 116 W/m2
11:34 11.7 °C 4.1 °C 1023.6 hPa Calm   8 km/h 59.7% 0 mm 155 W/m2
11:39 11.9 °C 3.6 °C 1023.6 hPa SSW 1 km/h 6.4 km/h 57% 0 mm 269 W/m2
11:44 12.1 °C 3.1 °C 1023.2 hPa SSW 0.2 km/h 6.4 km/h 54.2% 0 mm 241 W/m2
11:49 12.3 °C 3.5 °C 1023.2 hPa Calm   6.4 km/h 55% 0 mm 221 W/m2
11:54 12.4 °C 3.6 °C 1023.2 hPa Calm   6.4 km/h 55.1% 0 mm 207 W/m2
11:59 12.4 °C 3.8 °C 1022.9 hPa South 0.8 km/h 6.4 km/h 55.6% 0 mm 257 W/m2
12:09 12.5 °C 1.7 °C 1022.9 hPa South 2.4 km/h 8 km/h 47.7% 0 mm 276 W/m2
12:14 12.6 °C 1.4 °C 1022.6 hPa SSW 2.3 km/h 9.7 km/h 46.4% 0 mm 223 W/m2
12:19 12.8 °C 1.2 °C 1022.6 hPa SSW 2.1 km/h 9.7 km/h 45% 0 mm 246 W/m2
12:24 12.8 °C 1.2 °C 1022.6 hPa SSW 1.4 km/h 9.7 km/h 45% 0 mm 135 W/m2
12:29 12.9 °C 1.3 °C 1022.6 hPa SSW 2.1 km/h 9.7 km/h 45.2% 0 mm 181 W/m2
12:34 13 °C 1.2 °C 1022.6 hPa SSW 1.8 km/h 9.7 km/h 44.6% 0 mm 202 W/m2
12:39 13.1 °C 1.4 °C 1022.2 hPa SSW 2.7 km/h 11.3 km/h 44.9% 0 mm 130 W/m2
12:44 13.2 °C 1.4 °C 1022.2 hPa SW 2.3 km/h 11.3 km/h 44.5% 0 mm 132 W/m2
12:49 13.3 °C 1.1 °C 1021.9 hPa SSW 2.6 km/h 11.3 km/h 43.3% 0 mm 239 W/m2
12:54 13.3 °C 0.7 °C 1021.9 hPa SSW 2.7 km/h 12.9 km/h 42% 0 mm 336 W/m2
12:59 13.3 °C 0.9 °C 1021.9 hPa SSW 1.1 km/h 12.9 km/h 42.8% 0 mm 338 W/m2
13:04 13.3 °C 1 °C 1021.6 hPa SW 2.6 km/h 12.9 km/h 43% 0 mm 301 W/m2
13:09 13.4 °C 1.3 °C 1021.6 hPa SSW 2.4 km/h 9.7 km/h 43.8% 0 mm 253 W/m2
13:14 13.4 °C 0.9 °C 1021.6 hPa SSW 1.8 km/h 9.7 km/h 42.5% 0 mm 160 W/m2
13:19 13.3 °C 1.4 °C 1021.6 hPa SW 1.6 km/h 9.7 km/h 44.2% 0 mm 144 W/m2
13:24 13.3 °C 1.2 °C 1021.6 hPa SW 1.1 km/h 9.7 km/h 43.7% 0 mm 148 W/m2
13:29 13.4 °C 1.4 °C 1021.2 hPa SW 2.1 km/h 9.7 km/h 44% 0 mm 260 W/m2
13:34 13.5 °C 1.3 °C 1021.2 hPa SW 0.8 km/h 9.7 km/h 43.5% 0 mm 225 W/m2
13:39 13.6 °C 1.4 °C 1020.9 hPa SW 2.7 km/h 11.3 km/h 43.7% 0 mm 176 W/m2
13:44 13.6 °C 1.1 °C 1020.9 hPa SW 5 km/h 12.9 km/h 42.4% 0 mm 169 W/m2
13:49 13.6 °C 1 °C 1020.9 hPa SW 2.6 km/h 14.5 km/h 42.3% 0 mm 232 W/m2
13:54 13.6 °C 1.2 °C 1020.9 hPa SW 2.3 km/h 14.5 km/h 43% 0 mm 229 W/m2
13:59 13.6 °C 1.3 °C 1020.5 hPa SW 1.6 km/h 14.5 km/h 43.1% 0 mm 155 W/m2
14:04 13.6 °C 1.5 °C 1020.5 hPa SW 0.5 km/h 14.5 km/h 43.8% 0 mm 130 W/m2
14:09 13.6 °C 1.9 °C 1020.5 hPa SW 1.1 km/h 6.4 km/h 45.2% 0 mm 123 W/m2
14:14 13.5 °C 2.6 °C 1020.5 hPa SSW 2.1 km/h 11.3 km/h 47.5% 0 mm 128 W/m2
14:19 13.3 °C 2.9 °C 1020.5 hPa SSW 3.1 km/h 11.3 km/h 49% 0 mm 128 W/m2
14:24 13.2 °C 3.1 °C 1020.2 hPa SSW 6.3 km/h 16.1 km/h 50.4% 0 mm 118 W/m2
14:29 12.9 °C 3.1 °C 1020.2 hPa South 2.6 km/h 16.1 km/h 50.9% 0 mm 95 W/m2
14:34 12.8 °C 3.2 °C 1020.2 hPa South 2.7 km/h 16.1 km/h 52% 0 mm 100 W/m2
14:39 12.7 °C 3.2 °C 1020.2 hPa South 1.8 km/h 8 km/h 52.5% 0 mm 104 W/m2
14:44 12.8 °C 3.3 °C 1020.2 hPa South 1.3 km/h 8 km/h 52.6% 0 mm 100 W/m2
14:49 12.8 °C 3.3 °C 1020.2 hPa South 2.4 km/h 17.7 km/h 52.4% 0 mm 97 W/m2
14:54 12.7 °C 3.5 °C 1019.9 hPa South 0.3 km/h 17.7 km/h 53.3% 0 mm 93 W/m2
14:59 12.7 °C 3.9 °C 1019.9 hPa SSW 2.6 km/h 17.7 km/h 54.9% 0 mm 93 W/m2
15:04 12.8 °C 3.9 °C 1019.9 hPa SSW 4.3 km/h 17.7 km/h 55% 0 mm 88 W/m2
15:09 12.7 °C 3.9 °C 1019.9 hPa SW 2.9 km/h 11.3 km/h 55.2% 0 mm 69 W/m2
15:14 12.6 °C 3.9 °C 1019.9 hPa SSW 2.7 km/h 11.3 km/h 55.5% 0 mm 60 W/m2
15:19 12.5 °C 3.9 °C 1019.9 hPa SW 1.1 km/h 11.3 km/h 56% 0 mm 46 W/m2
15:24 12.4 °C 4 °C 1019.9 hPa SSW 2.1 km/h 11.3 km/h 56.6% 0 mm 35 W/m2
15:29 12.3 °C 4.1 °C 1019.9 hPa SSW 1.3 km/h 11.3 km/h 57.4% 0 mm 33 W/m2
15:34 12.1 °C 4.3 °C 1019.9 hPa SSW 1 km/h 11.3 km/h 58.5% 0 mm 32 W/m2
15:39 12 °C 4.3 °C 1019.9 hPa SSW 1 km/h 6.4 km/h 59.2% 0 mm 26 W/m2
15:44 11.8 °C 4.3 °C 1019.9 hPa SSW 1.6 km/h 8 km/h 60% 0 mm 21 W/m2
15:49 11.7 °C 4.2 °C 1019.9 hPa SSW 1.1 km/h 9.7 km/h 60.1% 0 mm 19 W/m2
15:54 11.6 °C 4.3 °C 1019.9 hPa SSW 0.6 km/h 9.7 km/h 61% 0 mm 16 W/m2
15:59 11.4 °C 4.2 °C 1019.9 hPa SSW 1.8 km/h 9.7 km/h 61% 0 mm 11 W/m2
16:09 11.2 °C 4.1 °C 1019.9 hPa SSW 1.4 km/h 8 km/h 61.4% 0 mm 7 W/m2
16:14 11.2 °C 4.2 °C 1019.9 hPa SSW 0.6 km/h 8 km/h 62% 0 mm 5 W/m2
16:19 11.1 °C 4.2 °C 1019.9 hPa SSW 3.7 km/h 11.3 km/h 62.3% 0 mm 0 W/m2
16:24 11.1 °C 4.3 °C 1019.9 hPa South 1.6 km/h 11.3 km/h 63% 0 mm 0 W/m2
16:29 11 °C 4.2 °C 1019.9 hPa South 0.5 km/h 11.3 km/h 63% 0 mm 0 W/m2
16:34 10.9 °C 4.4 °C 1019.9 hPa South 0.3 km/h 11.3 km/h 63.9% 0 mm 0 W/m2
16:39 10.9 °C 4.3 °C 1019.9 hPa South 0.2 km/h 4.8 km/h 64% 0 mm 0 W/m2
16:44 10.8 °C 4.3 °C 1019.9 hPa Calm   4.8 km/h 64.3% 0 mm 0 W/m2
16:49 10.7 °C 4.4 °C 1019.9 hPa Calm   4.8 km/h 65% 0 mm 0 W/m2
16:54 10.7 °C 4.4 °C 1019.5 hPa Calm   4.8 km/h 65% 0 mm 0 W/m2
16:59 10.7 °C 4.4 °C 1019.5 hPa Calm   4.8 km/h 65.5% 0 mm 0 W/m2
17:04 10.6 °C 4.5 °C 1019.5 hPa Calm   4.8 km/h 66% 0 mm 0 W/m2
17:09 10.6 °C 4.5 °C 1019.5 hPa South 0.2 km/h 4.8 km/h 66% 0 mm 0 W/m2
17:14 10.6 °C 4.6 °C 1019.5 hPa Calm   4.8 km/h 66.4% 0 mm 0 W/m2
17:19 10.6 °C 4.7 °C 1019.5 hPa Calm   4.8 km/h 67% 0 mm 0 W/m2
17:24 10.6 °C 4.7 °C 1019.5 hPa South 0.5 km/h 6.4 km/h 67% 0 mm 0 W/m2
17:29 10.6 °C 4.9 °C 1019.5 hPa South 0.2 km/h 6.4 km/h 68% 0 mm 0 W/m2
17:34 10.6 °C 5.1 °C 1019.5 hPa Calm   6.4 km/h 69% 0 mm 0 W/m2
17:39 10.6 °C 5.2 °C 1019.5 hPa Calm     69.4% 0 mm 0 W/m2
17:44 10.6 °C 5.4 °C 1019.2 hPa Calm     70.4% 0 mm 0 W/m2
17:49 10.6 °C 5.7 °C 1019.2 hPa South 0.5 km/h 9.7 km/h 71.7% 0 mm 0 W/m2
17:54 10.6 °C 5.8 °C 1019.2 hPa South 0.5 km/h 9.7 km/h 72.5% 0 mm 0 W/m2
17:59 10.6 °C 5.9 °C 1019.2 hPa Calm   9.7 km/h 73% 0 mm 0 W/m2
18:04 10.6 °C 6.1 °C 1019.2 hPa South 0.3 km/h 9.7 km/h 73.8% 0 mm 0 W/m2
18:09 10.5 °C 6.1 °C 1018.8 hPa Calm   4.8 km/h 74% 0 mm 0 W/m2
18:14 10.5 °C 6.2 °C 1018.8 hPa South 0.3 km/h 4.8 km/h 74.9% 0 mm 0 W/m2
18:19 10.5 °C 6.3 °C 1018.8 hPa South 0.2 km/h 4.8 km/h 75.2% 0 mm 0 W/m2
18:24 10.4 °C 6.4 °C 1018.8 hPa South 0.2 km/h 4.8 km/h 76% 0 mm 0 W/m2
18:29 10.4 °C 6.4 °C 1018.8 hPa South 0.2 km/h 4.8 km/h 76% 0 mm 0 W/m2
18:34 10.4 °C 6.5 °C 1018.8 hPa Calm   4.8 km/h 76.5% 0 mm 0 W/m2
18:39 10.4 °C 6.6 °C 1018.8 hPa South 0.3 km/h 4.8 km/h 77% 0 mm 0 W/m2
18:44 10.4 °C 6.6 °C 1018.5 hPa South 0.3 km/h 4.8 km/h 77.1% 0 mm 0 W/m2
18:49 10.5 °C 6.8 °C 1018.5 hPa South 0.3 km/h 4.8 km/h 78% 0 mm 0 W/m2
18:54 10.5 °C 6.8 °C 1018.5 hPa Calm   4.8 km/h 78% 0 mm 0 W/m2
18:59 10.4 °C 6.8 °C 1018.5 hPa South 0.5 km/h 4.8 km/h 78% 0 mm 0 W/m2
19:04 10.5 °C 6.9 °C 1018.2 hPa South 0.3 km/h 4.8 km/h 78.4% 0 mm 0 W/m2
19:09 10.5 °C 7 °C 1018.2 hPa South 1 km/h 4.8 km/h 79% 0 mm 0 W/m2
19:14 10.5 °C 7 °C 1018.2 hPa South 0.2 km/h 4.8 km/h 79% 0 mm 0 W/m2
19:19 10.5 °C 7.2 °C 1018.2 hPa South 0.6 km/h 6.4 km/h 80% 0 mm 0 W/m2
19:24 10.5 °C 7.2 °C 1018.2 hPa Calm   6.4 km/h 80% 0 mm 0 W/m2
19:29 10.5 °C 7.2 °C 1018.2 hPa Calm   6.4 km/h 80% 0 mm 0 W/m2
19:34 10.5 °C 7.3 °C 1018.2 hPa Calm   6.4 km/h 80.7% 0 mm 0 W/m2
19:39 10.5 °C 7.4 °C 1017.8 hPa South 0.5 km/h 4.8 km/h 81% 0 mm 0 W/m2
19:44 10.5 °C 7.4 °C 1017.8 hPa South 0.2 km/h 4.8 km/h 81.5% 0 mm 0 W/m2
19:49 10.5 °C 7.7 °C 1017.8 hPa Calm   4.8 km/h 82.9% 0.25 mm 0 W/m2
19:54 10.4 °C 7.9 °C 1017.8 hPa Calm   4.8 km/h 84.3% 0.25 mm 0 W/m2
19:59 10.4 °C 8 °C 1017.8 hPa Calm   4.8 km/h 85.4% 0.25 mm 0 W/m2
20:00 10.3 °C 8.1 °C 1017.8 hPa Calm   4.8 km/h 86% 0.25 mm 0 W/m2
20:09 10.2 °C 8.2 °C 1017.5 hPa Calm     87.1% 0.25 mm 0 W/m2
20:14 10.1 °C 8.2 °C 1017.5 hPa Calm     88% 0.51 mm 0 W/m2
20:19 10.1 °C 8.2 °C 1017.5 hPa Calm     88% 0.51 mm 0 W/m2
20:24 10 °C 8.3 °C 1017.2 hPa Calm     89% 0.51 mm 0 W/m2
20:29 9.9 °C 8.2 °C 1016.8 hPa Calm     89% 0.51 mm 0 W/m2
20:34 9.9 °C 8.3 °C 1016.8 hPa Calm     89.9% 0.51 mm 0 W/m2
20:39 9.9 °C 8.4 °C 1016.8 hPa Calm     90.3% 0.51 mm 0 W/m2
20:44 9.8 °C 8.4 °C 1016.5 hPa Calm     91% 0.51 mm 0 W/m2
20:49 9.8 °C 8.4 °C 1016.8 hPa Calm     91% 0.51 mm 0 W/m2
20:54 9.8 °C 8.4 °C 1016.5 hPa Calm     91.3% 0.76 mm 0 W/m2
20:59 9.8 °C 8.6 °C 1016.5 hPa Calm   3.2 km/h 92% 0.76 mm 0 W/m2
21:04 9.8 °C 8.6 °C 1016.5 hPa Calm   3.2 km/h 92% 0.76 mm 0 W/m2
21:09 9.8 °C 8.6 °C 1016.5 hPa Calm     92% 0.51 mm 0 W/m2
21:14 9.8 °C 8.6 °C 1016.1 hPa Calm     92.2% 0.51 mm 0 W/m2
21:19 9.8 °C 8.7 °C 1015.8 hPa South 0.2 km/h 3.2 km/h 92.5% 0.76 mm 0 W/m2
21:24 9.8 °C 8.8 °C 1015.5 hPa Calm   3.2 km/h 93% 0.76 mm 0 W/m2
21:29 9.8 °C 8.8 °C 1015.5 hPa South 0.2 km/h 3.2 km/h 93% 0.76 mm 0 W/m2
21:34 9.8 °C 8.8 °C 1015.1 hPa South 0.8 km/h 8 km/h 93% 0.76 mm 0 W/m2
21:39 9.9 °C 8.8 °C 1015.1 hPa South 0.8 km/h 8 km/h 93% 0.76 mm 0 W/m2
21:44 9.9 °C 8.8 °C 1015.1 hPa South 0.5 km/h 8 km/h 93% 0.76 mm 0 W/m2
21:49 9.9 °C 8.8 °C 1014.8 hPa Calm   8 km/h 93% 0.76 mm 0 W/m2
21:54 9.9 °C 9.1 °C 1014.8 hPa Calm   8 km/h 94% 0.76 mm 0 W/m2
21:59 9.9 °C 9.1 °C 1014.4 hPa Calm   8 km/h 94% 0.76 mm 0 W/m2
22:04 9.9 °C 9.1 °C 1014.4 hPa Calm   8 km/h 94% 0.76 mm 0 W/m2
22:09 10 °C 9.1 °C 1014.4 hPa Calm     94% 0.51 mm 0 W/m2
22:14 10 °C 9.1 °C 1014.4 hPa Calm     94% 0.51 mm 0 W/m2
22:19 10 °C 9.1 °C 1014.1 hPa Calm     94% 0.51 mm 0 W/m2
22:24 10.1 °C 9.1 °C 1014.1 hPa Calm     94% 0.51 mm 0 W/m2
22:29 10.1 °C 9.2 °C 1014.1 hPa South 0.6 km/h 4.8 km/h 94% 0.51 mm 0 W/m2
22:34 10.1 °C 9.2 °C 1014.1 hPa South 0.5 km/h 4.8 km/h 94% 0.51 mm 0 W/m2
22:39 10.2 °C 9.2 °C 1013.8 hPa South 0.6 km/h 4.8 km/h 94% 0 mm 0 W/m2
22:44 10.2 °C 9.3 °C 1013.8 hPa South 0.2 km/h 6.4 km/h 94% 0 mm 0 W/m2
22:49 10.2 °C 9.3 °C 1013.8 hPa Calm   6.4 km/h 94% 0 mm 0 W/m2
22:54 10.2 °C 9.3 °C 1013.8 hPa Calm   6.4 km/h 94% 0 mm 0 W/m2
22:59 10.2 °C 9.3 °C 1013.8 hPa Calm   6.4 km/h 94% 0 mm 0 W/m2
23:00 10.3 °C 9.3 °C 1013.4 hPa Calm   6.4 km/h 94% 0 mm 0 W/m2
23:09 10.3 °C 9.5 °C 1013.4 hPa Calm   1.6 km/h 95% 0 mm 0 W/m2
23:14 10.3 °C 9.5 °C 1013.4 hPa South 0.5 km/h 4.8 km/h 95% 0 mm 0 W/m2
23:19 10.3 °C 9.6 °C 1013.1 hPa South 0.3 km/h 4.8 km/h 95% 0 mm 0 W/m2
23:24 10.3 °C 9.6 °C 1013.4 hPa South 0.6 km/h 4.8 km/h 95% 0 mm 0 W/m2
23:29 10.3 °C 9.6 °C 1013.4 hPa South 1.6 km/h 6.4 km/h 95% 0 mm 0 W/m2
23:34 10.3 °C 9.6 °C 1013.4 hPa Calm   6.4 km/h 95% 0 mm 0 W/m2
23:39 10.3 °C 9.6 °C 1013.4 hPa South 0.2 km/h 4.8 km/h 95% 0 mm 0 W/m2
23:44 10.4 °C 9.6 °C 1013.4 hPa Calm   4.8 km/h 95% 0 mm 0 W/m2
23:49 10.5 °C 9.7 °C 1013.1 hPa South 2.3 km/h 9.7 km/h 95% 0 mm 0 W/m2
23:54 10.6 °C 9.8 °C 1012.8 hPa South 0.8 km/h 9.7 km/h 95% 0 mm 0 W/m2
23:59 10.7 °C 9.9 °C 1012.8 hPa South 2.4 km/h 9.7 km/h 95% 0 mm 0 W/m2
Hartford County Weather
Compliments of Weather Underground - 2 mb